Time;durP1;ratioP1;P1;durP2;ratioP2;P2;SDS_P1;SDS_P2;PMS_P1;PMS_P2;Temp;Humidity;BMP_temperature;BMP_pressure;BME280_temperature;BME280_humidity;BME280_pressure;Samples;Min_cycle;Max_cycle;Signal;HPM_P1;HPM_P2
2023/03/25 00:01:07;;;;;;;7.30;5.35;;;;;;;;;;5011940;28;20032;-84
2023/03/25 00:03:34;;;;;;;8.02;5.40;;;;;;;;;;5012346;28;20103;-84
2023/03/25 00:06:00;;;;;;;7.72;4.97;;;;;;;;;;5012267;28;20120;-84
2023/03/25 00:08:27;;;;;;;7.43;5.10;;;;;;;;;;5012599;28;20057;-84
2023/03/25 00:10:53;;;;;;;7.70;4.75;;;;;;;;;;5011704;28;20056;-83
2023/03/25 00:13:20;;;;;;;8.20;5.43;;;;;;;;;;5012125;28;20092;-84
2023/03/25 00:15:46;;;;;;;6.75;5.30;;;;;;;;;;5011898;28;20029;-84
2023/03/25 00:18:13;;;;;;;9.18;5.20;;;;;;;;;;5012402;28;20030;-84
2023/03/25 00:20:39;;;;;;;6.85;4.60;;;;;;;;;;5011574;28;20064;-84
2023/03/25 00:23:06;;;;;;;7.07;5.28;;;;;;;;;;5012189;28;20117;-84
2023/03/25 00:25:32;;;;;;;9.02;5.13;;;;;;;;;;5011859;28;20032;-84
2023/03/25 00:27:58;;;;;;;8.90;5.05;;;;;;;;;;5011811;28;20026;-84
2023/03/25 00:30:24;;;;;;;6.53;4.93;;;;;;;;;;5011823;28;20037;-84
2023/03/25 00:32:56;;;;;;;7.05;4.80;;;;;;;;;;5011821;28;20084;-85
2023/03/25 00:35:24;;;;;;;7.28;4.85;;;;;;;;;;5011839;28;20022;-84
2023/03/25 00:37:56;;;;;;;7.18;4.80;;;;;;;;;;5011557;28;20029;-84
2023/03/25 00:40:22;;;;;;;7.15;4.47;;;;;;;;;;5011782;28;20538;-84
2023/03/25 00:42:49;;;;;;;6.70;4.60;;;;;;;;;;5011453;28;20172;-84
2023/03/25 00:45:15;;;;;;;6.60;4.57;;;;;;;;;;5011800;28;20041;-84
2023/03/25 00:47:42;;;;;;;7.03;4.68;;;;;;;;;;5011708;28;20120;-84
2023/03/25 00:50:08;;;;;;;6.65;4.55;;;;;;;;;;5011543;28;20030;-84
2023/03/25 00:52:34;;;;;;;5.72;4.55;;;;;;;;;;5010982;28;20042;-84
2023/03/25 00:55:00;;;;;;;6.75;4.78;;;;;;;;;;5011658;28;20025;-84
2023/03/25 00:57:27;;;;;;;6.68;4.70;;;;;;;;;;5011690;28;20097;-84
2023/03/25 00:59:53;;;;;;;7.18;4.63;;;;;;;;;;5011185;28;20022;-84
2023/03/25 01:02:20;;;;;;;7.45;4.63;;;;;;;;;;5011979;28;20036;-84
2023/03/25 01:04:48;;;;;;;6.55;4.30;;;;;;;;;;5011233;28;20026;-84
2023/03/25 01:07:14;;;;;;;6.00;4.45;;;;;;;;;;5011658;28;20040;-84
2023/03/25 01:09:42;;;;;;;6.53;4.30;;;;;;;;;;5011633;28;20034;-84
2023/03/25 01:12:08;;;;;;;6.47;4.43;;;;;;;;;;5011429;28;20053;-85
2023/03/25 01:14:34;;;;;;;5.53;4.60;;;;;;;;;;5014394;28;20025;-84
2023/03/25 01:17:00;;;;;;;7.40;4.57;;;;;;;;;;5015347;28;20018;-84
2023/03/25 01:19:26;;;;;;;7.47;4.65;;;;;;;;;;5015253;28;20026;-84
2023/03/25 01:21:52;;;;;;;6.18;4.22;;;;;;;;;;5015143;28;20026;-83
2023/03/25 01:24:18;;;;;;;8.25;4.68;;;;;;;;;;5015422;28;20042;-84
2023/03/25 01:26:44;;;;;;;6.03;4.22;;;;;;;;;;5015083;28;20026;-84
2023/03/25 01:29:11;;;;;;;8.20;4.18;;;;;;;;;;5015248;28;20076;-84
2023/03/25 01:31:37;;;;;;;7.20;4.53;;;;;;;;;;5014619;28;20096;-84
2023/03/25 01:34:04;;;;;;;6.25;4.28;;;;;;;;;;5015414;28;20355;-83
2023/03/25 01:36:30;;;;;;;6.20;4.53;;;;;;;;;;5015087;28;20026;-84
2023/03/25 01:39:00;;;;;;;6.88;4.15;;;;;;;;;;5015057;28;20371;-84
2023/03/25 01:41:27;;;;;;;6.38;4.45;;;;;;;;;;5015280;28;20029;-84
2023/03/25 01:46:43;;;;;;;8.48;4.45;;;;;;;;;;5079090;27;1536708;-84
2023/03/25 01:49:12;;;;;;;6.57;3.97;;;;;;;;;;5129706;27;20368;-84
2023/03/25 01:51:40;;;;;;;9.32;4.40;;;;;;;;;;5129757;27;20114;-84
2023/03/25 01:54:06;;;;;;;5.85;4.28;;;;;;;;;;5129875;27;20032;-84
2023/03/25 01:56:34;;;;;;;6.95;4.07;;;;;;;;;;5129106;28;20387;-84
2023/03/25 01:59:03;;;;;;;6.72;4.15;;;;;;;;;;5129421;28;20019;-84
2023/03/25 02:01:30;;;;;;;6.70;4.13;;;;;;;;;;5129548;28;20488;-84
2023/03/25 02:04:01;;;;;;;8.40;4.20;;;;;;;;;;5129418;27;20055;-84
2023/03/25 02:06:38;;;;;;;5.60;4.20;;;;;;;;;;5129382;27;20016;-84
2023/03/25 02:09:10;;;;;;;6.50;3.95;;;;;;;;;;5129163;27;20046;-84
2023/03/25 02:11:37;;;;;;;6.68;4.40;;;;;;;;;;5129004;27;20024;-84
2023/03/25 02:14:05;;;;;;;7.07;4.28;;;;;;;;;;5129579;28;20023;-83
2023/03/25 02:16:43;;;;;;;6.60;4.15;;;;;;;;;;5129348;28;20030;-84
2023/03/25 02:22:04;;;;;;;6.15;4.00;;;;;;;;;;5068774;28;20376;-84
2023/03/25 02:27:26;;;;;;;8.32;4.60;;;;;;;;;;5088629;27;1267204;-84
2023/03/25 02:32:51;;;;;;;7.60;4.10;;;;;;;;;;5048556;28;20427;-84
2023/03/25 02:35:36;;;;;;;5.43;3.95;;;;;;;;;;5047863;28;20026;-85
2023/03/25 02:38:23;;;;;;;6.57;4.20;;;;;;;;;;5048134;28;20083;-85
2023/03/25 02:41:09;;;;;;;6.30;4.25;;;;;;;;;;5047449;28;20052;-85
2023/03/25 02:43:41;;;;;;;6.03;3.90;;;;;;;;;;5047421;28;20031;-85
2023/03/25 02:46:09;;;;;;;5.68;4.18;;;;;;;;;;5048598;28;20025;-84
2023/03/25 02:48:42;;;;;;;6.45;3.85;;;;;;;;;;5048409;28;20033;-84
2023/03/25 02:51:11;;;;;;;5.25;3.90;;;;;;;;;;5048581;28;20425;-84
2023/03/25 02:53:39;;;;;;;7.55;4.10;;;;;;;;;;5048494;28;20033;-84
2023/03/25 02:56:08;;;;;;;5.60;3.80;;;;;;;;;;5048261;28;20478;-84
2023/03/25 02:58:34;;;;;;;5.07;4.05;;;;;;;;;;5047963;28;20034;-84
2023/03/25 03:01:01;;;;;;;5.28;3.67;;;;;;;;;;5048539;28;20033;-85
2023/03/25 03:03:27;;;;;;;6.22;4.32;;;;;;;;;;5048516;28;20055;-84
2023/03/25 03:05:56;;;;;;;5.30;4.07;;;;;;;;;;5047846;28;20048;-83
2023/03/25 03:11:20;;;;;;;5.85;3.80;;;;;;;;;;5048867;28;20427;-84
2023/03/25 03:22:13;;;;;;;6.55;4.15;;;;;;;;;;5048766;28;20369;-84
2023/03/25 03:24:41;;;;;;;8.00;3.97;;;;;;;;;;5047653;28;20036;-85
2023/03/25 03:27:22;;;;;;;6.25;3.92;;;;;;;;;;5048935;28;20090;-83
2023/03/25 03:29:49;;;;;;;7.03;4.40;;;;;;;;;;5048687;28;20083;-83
2023/03/25 03:32:33;;;;;;;6.57;3.95;;;;;;;;;;5048424;28;20450;-84
2023/03/25 03:35:02;;;;;;;6.10;4.25;;;;;;;;;;5048639;28;20044;-84
2023/03/25 03:37:37;;;;;;;7.25;4.20;;;;;;;;;;5048233;28;20017;-84
2023/03/25 03:40:09;;;;;;;7.88;4.18;;;;;;;;;;5048413;28;20398;-84
2023/03/25 03:42:38;;;;;;;7.13;4.25;;;;;;;;;;5048142;28;20498;-84
2023/03/25 03:45:08;;;;;;;6.10;4.50;;;;;;;;;;5048367;28;20021;-84
2023/03/25 03:47:40;;;;;;;7.75;4.18;;;;;;;;;;5048188;28;20025;-84
2023/03/25 03:50:10;;;;;;;5.07;4.00;;;;;;;;;;5048161;28;20036;-84
2023/03/25 03:52:39;;;;;;;7.68;4.50;;;;;;;;;;5047980;28;20074;-84
2023/03/25 03:57:47;;;;;;;6.50;3.83;;;;;;;;;;5089222;28;20386;-84
2023/03/25 04:00:33;;;;;;;6.68;4.28;;;;;;;;;;5089443;28;20025;-84
2023/03/25 04:03:03;;;;;;;6.13;4.38;;;;;;;;;;5089132;28;20104;-84
2023/03/25 04:05:29;;;;;;;5.68;3.97;;;;;;;;;;5089389;28;20052;-84
2023/03/25 04:08:10;;;;;;;4.72;3.80;;;;;;;;;;5089386;28;20028;-84
2023/03/25 04:10:39;;;;;;;7.15;4.55;;;;;;;;;;5088549;28;20039;-84
2023/03/25 04:13:08;;;;;;;7.50;4.47;;;;;;;;;;5088556;28;20027;-85
2023/03/25 04:15:34;;;;;;;7.00;4.18;;;;;;;;;;5088266;28;20517;-84
2023/03/25 04:18:00;;;;;;;8.95;4.40;;;;;;;;;;5088913;28;20024;-84
2023/03/25 04:20:28;;;;;;;8.38;4.78;;;;;;;;;;5088300;28;20359;-84
2023/03/25 04:22:54;;;;;;;7.60;4.57;;;;;;;;;;5088363;28;20028;-84
2023/03/25 04:25:20;;;;;;;9.20;4.53;;;;;;;;;;5088750;28;20465;-85
2023/03/25 04:27:47;;;;;;;6.55;4.40;;;;;;;;;;5088705;28;20032;-84
2023/03/25 04:30:16;;;;;;;5.95;4.30;;;;;;;;;;5088360;28;20024;-85
2023/03/25 04:32:45;;;;;;;6.70;4.25;;;;;;;;;;5088175;28;20471;-84
2023/03/25 04:35:11;;;;;;;7.60;4.40;;;;;;;;;;5088353;28;20028;-84
2023/03/25 04:37:37;;;;;;;7.63;4.63;;;;;;;;;;5087773;28;20028;-84
2023/03/25 04:40:05;;;;;;;7.10;4.72;;;;;;;;;;5088264;28;20153;-85
2023/03/25 04:42:36;;;;;;;9.60;4.63;;;;;;;;;;5087986;28;20082;-84
2023/03/25 04:45:02;;;;;;;6.35;3.95;;;;;;;;;;5088489;28;20024;-84
2023/03/25 04:47:28;;;;;;;7.07;4.38;;;;;;;;;;5087947;28;20046;-84
2023/03/25 04:49:55;;;;;;;7.72;4.57;;;;;;;;;;5087935;28;20114;-84
2023/03/25 04:52:21;;;;;;;7.25;4.60;;;;;;;;;;5088003;28;20024;-84
2023/03/25 04:54:46;;;;;;;7.70;4.43;;;;;;;;;;5087616;28;20538;-84
2023/03/25 04:57:14;;;;;;;6.30;4.40;;;;;;;;;;5087795;28;20075;-84
2023/03/25 04:59:40;;;;;;;7.45;4.15;;;;;;;;;;5087387;28;20031;-84
2023/03/25 05:02:06;;;;;;;5.65;4.03;;;;;;;;;;5087842;28;20432;-85
2023/03/25 05:04:32;;;;;;;8.18;4.68;;;;;;;;;;5087488;28;20103;-83
2023/03/25 05:06:58;;;;;;;8.27;4.40;;;;;;;;;;5086506;28;20024;-83
2023/03/25 05:09:24;;;;;;;8.57;4.40;;;;;;;;;;5074013;28;20030;-84
2023/03/25 05:11:51;;;;;;;6.88;4.72;;;;;;;;;;5073901;28;20035;-84
2023/03/25 05:14:19;;;;;;;6.50;4.80;;;;;;;;;;5074225;28;20037;-84
2023/03/25 05:16:46;;;;;;;6.65;4.50;;;;;;;;;;5073559;28;20137;-84
2023/03/25 05:19:12;;;;;;;7.57;4.55;;;;;;;;;;5074220;28;20023;-84
2023/03/25 05:21:39;;;;;;;7.20;4.47;;;;;;;;;;5073694;28;20043;-84
2023/03/25 05:24:09;;;;;;;6.63;4.43;;;;;;;;;;5073614;28;20575;-84
2023/03/25 05:26:39;;;;;;;7.88;4.68;;;;;;;;;;5073848;28;20040;-83
2023/03/25 05:29:07;;;;;;;7.55;4.65;;;;;;;;;;5073724;28;20335;-84
2023/03/25 05:31:33;;;;;;;6.72;4.80;;;;;;;;;;5073375;28;20032;-82
2023/03/25 05:33:59;;;;;;;6.50;4.43;;;;;;;;;;5073879;28;20103;-82
2023/03/25 05:36:25;;;;;;;8.45;4.35;;;;;;;;;;5073597;28;20500;-82
2023/03/25 05:38:55;;;;;;;7.45;4.25;;;;;;;;;;5073108;28;20086;-82
2023/03/25 05:41:31;;;;;;;7.82;5.10;;;;;;;;;;5073164;28;20044;-83
2023/03/25 05:43:57;;;;;;;6.45;4.70;;;;;;;;;;5073604;28;20063;-83
2023/03/25 05:46:23;;;;;;;7.05;5.00;;;;;;;;;;5073505;28;20106;-83
2023/03/25 05:48:50;;;;;;;7.10;4.65;;;;;;;;;;5073007;28;20029;-83
2023/03/25 05:51:20;;;;;;;5.05;4.07;;;;;;;;;;5073327;28;20024;-84
2023/03/25 05:53:48;;;;;;;8.45;4.82;;;;;;;;;;5072918;28;20513;-84
2023/03/25 05:56:16;;;;;;;9.10;5.38;;;;;;;;;;5072929;28;20087;-84
2023/03/25 05:58:42;;;;;;;6.97;4.78;;;;;;;;;;5072878;28;20055;-83
2023/03/25 06:01:14;;;;;;;8.02;5.30;;;;;;;;;;5073147;28;20070;-83
2023/03/25 06:03:40;;;;;;;7.15;4.55;;;;;;;;;;5072669;28;20493;-83
2023/03/25 06:06:12;;;;;;;11.43;5.47;;;;;;;;;;5072790;28;20123;-83
2023/03/25 06:08:40;;;;;;;6.57;4.28;;;;;;;;;;5073036;28;20052;-83
2023/03/25 06:11:08;;;;;;;6.50;4.72;;;;;;;;;;5073144;28;20427;-83
2023/03/25 06:13:36;;;;;;;7.05;5.00;;;;;;;;;;5072753;28;20032;-84
2023/03/25 06:16:04;;;;;;;7.82;4.95;;;;;;;;;;5072722;28;20031;-84
2023/03/25 06:18:30;;;;;;;7.15;4.88;;;;;;;;;;5072616;28;20148;-84
2023/03/25 06:20:58;;;;;;;7.78;4.90;;;;;;;;;;5072225;28;20028;-83
2023/03/25 06:23:25;;;;;;;9.02;4.93;;;;;;;;;;5073144;28;20504;-84
2023/03/25 06:25:51;;;;;;;6.95;4.80;;;;;;;;;;5072723;28;20513;-83
2023/03/25 06:28:17;;;;;;;6.65;4.47;;;;;;;;;;5072824;28;20032;-83
2023/03/25 06:30:47;;;;;;;6.32;4.50;;;;;;;;;;5072464;28;20090;-83
2023/03/25 06:33:15;;;;;;;7.07;4.68;;;;;;;;;;5072902;28;20512;-83
2023/03/25 06:35:41;;;;;;;7.25;4.70;;;;;;;;;;5072445;28;20103;-83
2023/03/25 06:38:08;;;;;;;7.32;4.88;;;;;;;;;;5072612;28;20170;-83
2023/03/25 06:40:36;;;;;;;8.43;4.65;;;;;;;;;;5072665;28;20420;-83
2023/03/25 06:43:03;;;;;;;9.85;4.72;;;;;;;;;;5072708;28;20021;-83
2023/03/25 06:45:29;;;;;;;6.80;4.68;;;;;;;;;;5072465;28;20029;-83
2023/03/25 06:47:55;;;;;;;8.13;4.82;;;;;;;;;;5072137;28;20143;-83
2023/03/25 06:50:21;;;;;;;6.10;4.30;;;;;;;;;;5072161;28;20052;-83
2023/03/25 06:52:47;;;;;;;6.85;4.90;;;;;;;;;;5072067;28;20052;-83
2023/03/25 06:55:13;;;;;;;7.35;4.60;;;;;;;;;;5072012;28;20108;-83
2023/03/25 06:57:40;;;;;;;6.43;4.35;;;;;;;;;;5071254;28;20490;-84
2023/03/25 07:00:07;;;;;;;8.75;4.80;;;;;;;;;;5071897;28;20088;-84
2023/03/25 07:02:33;;;;;;;6.82;4.50;;;;;;;;;;5071888;28;20028;-83
2023/03/25 07:04:59;;;;;;;6.60;4.57;;;;;;;;;;5071930;28;20024;-83
2023/03/25 07:07:25;;;;;;;7.10;4.85;;;;;;;;;;5071645;28;20473;-84
2023/03/25 07:09:53;;;;;;;7.07;4.78;;;;;;;;;;5071846;28;20025;-82
2023/03/25 07:12:19;;;;;;;6.72;4.57;;;;;;;;;;5071879;28;20462;-83
2023/03/25 07:14:50;;;;;;;8.50;4.70;;;;;;;;;;5071515;28;20036;-84
2023/03/25 07:17:16;;;;;;;6.65;4.63;;;;;;;;;;5071646;28;20032;-83
2023/03/25 07:19:42;;;;;;;7.75;4.30;;;;;;;;;;5071447;28;20027;-84
2023/03/25 07:22:08;;;;;;;5.30;4.20;;;;;;;;;;5071383;28;20013;-84
2023/03/25 07:24:34;;;;;;;8.90;4.65;;;;;;;;;;5071720;28;20020;-83
2023/03/25 07:27:00;;;;;;;6.75;4.93;;;;;;;;;;5071800;28;20115;-84
2023/03/25 07:29:26;;;;;;;7.00;4.50;;;;;;;;;;5071722;28;20151;-83
2023/03/25 07:31:52;;;;;;;7.50;4.70;;;;;;;;;;5071345;28;20039;-84
2023/03/25 07:34:18;;;;;;;6.65;4.70;;;;;;;;;;5071466;28;20098;-84
2023/03/25 07:36:44;;;;;;;6.90;4.88;;;;;;;;;;5071131;28;20029;-83
2023/03/25 07:39:10;;;;;;;5.93;4.38;;;;;;;;;;5071739;28;20025;-84
2023/03/25 07:41:36;;;;;;;9.57;4.93;;;;;;;;;;5071941;28;20537;-84
2023/03/25 07:44:02;;;;;;;7.45;4.85;;;;;;;;;;5071427;28;20040;-84
2023/03/25 07:46:28;;;;;;;6.35;4.60;;;;;;;;;;5071282;28;20033;-83
2023/03/25 07:48:55;;;;;;;6.32;4.53;;;;;;;;;;5070972;28;20543;-84
2023/03/25 07:51:20;;;;;;;7.22;4.70;;;;;;;;;;5071141;28;20474;-84
2023/03/25 07:53:46;;;;;;;7.28;4.80;;;;;;;;;;5071248;28;20029;-84
2023/03/25 07:56:13;;;;;;;9.73;4.80;;;;;;;;;;5071066;28;20342;-84
2023/03/25 07:58:40;;;;;;;6.82;4.88;;;;;;;;;;5071032;28;20108;-84
2023/03/25 08:01:06;;;;;;;6.75;5.07;;;;;;;;;;5071201;28;20021;-83
2023/03/25 08:03:33;;;;;;;6.15;4.82;;;;;;;;;;5070890;28;20021;-84
2023/03/25 08:06:01;;;;;;;8.48;5.10;;;;;;;;;;5071305;28;20086;-84
2023/03/25 08:08:28;;;;;;;6.60;4.57;;;;;;;;;;5071344;28;20483;-84
2023/03/25 08:10:55;;;;;;;7.35;4.65;;;;;;;;;;5071130;28;20024;-84
2023/03/25 08:13:21;;;;;;;7.68;4.97;;;;;;;;;;5071132;28;20059;-84
2023/03/25 08:15:47;;;;;;;7.68;5.35;;;;;;;;;;5070885;28;20032;-83
2023/03/25 08:18:13;;;;;;;7.30;5.00;;;;;;;;;;5071139;28;20034;-83
2023/03/25 08:20:40;;;;;;;7.40;5.40;;;;;;;;;;5070690;28;20381;-83
2023/03/25 08:23:09;;;;;;;6.82;5.28;;;;;;;;;;5070660;28;20025;-83
2023/03/25 08:25:35;;;;;;;7.38;5.30;;;;;;;;;;5070832;28;20021;-83
2023/03/25 08:28:01;;;;;;;8.07;5.45;;;;;;;;;;5070881;28;20028;-83
2023/03/25 08:30:27;;;;;;;6.30;4.93;;;;;;;;;;5071075;28;20029;-84
2023/03/25 08:32:54;;;;;;;8.32;4.78;;;;;;;;;;5070653;28;20385;-83
2023/03/25 08:35:20;;;;;;;8.25;5.30;;;;;;;;;;5070698;28;20463;-84
2023/03/25 08:37:47;;;;;;;8.07;4.95;;;;;;;;;;5070282;28;20039;-84
2023/03/25 08:40:15;;;;;;;8.30;4.80;;;;;;;;;;5071105;28;20032;-84
2023/03/25 08:42:42;;;;;;;8.15;5.25;;;;;;;;;;5071316;28;20473;-83
2023/03/25 08:45:08;;;;;;;7.00;4.90;;;;;;;;;;5074372;28;20478;-86
2023/03/25 08:47:34;;;;;;;6.82;4.40;;;;;;;;;;5074289;28;20031;-83
2023/03/25 08:50:00;;;;;;;5.13;4.32;;;;;;;;;;5074399;28;20051;-83
2023/03/25 08:52:26;;;;;;;6.80;4.85;;;;;;;;;;5074449;28;20024;-83
2023/03/25 08:54:52;;;;;;;6.28;4.60;;;;;;;;;;5074116;28;20382;-83
2023/03/25 08:57:18;;;;;;;6.38;4.55;;;;;;;;;;5073832;28;20070;-83
2023/03/25 08:59:44;;;;;;;7.57;5.32;;;;;;;;;;5073917;28;20126;-82
2023/03/25 09:02:11;;;;;;;6.50;4.35;;;;;;;;;;5074141;28;20461;-83
2023/03/25 09:04:38;;;;;;;6.40;4.40;;;;;;;;;;5074094;28;20103;-83
2023/03/25 09:07:04;;;;;;;6.22;4.45;;;;;;;;;;5073926;28;20029;-84
2023/03/25 09:09:30;;;;;;;9.45;4.40;;;;;;;;;;5077808;28;20056;-83
2023/03/25 09:11:56;;;;;;;6.68;4.55;;;;;;;;;;5079736;28;20408;-83
2023/03/25 09:14:22;;;;;;;8.57;4.70;;;;;;;;;;5079145;28;20093;-83
2023/03/25 09:16:48;;;;;;;5.50;4.45;;;;;;;;;;5077525;28;20134;-84
2023/03/25 09:19:14;;;;;;;8.75;4.38;;;;;;;;;;5079216;28;20092;-83
2023/03/25 09:21:40;;;;;;;6.70;4.30;;;;;;;;;;5078739;28;20016;-84
2023/03/25 09:24:07;;;;;;;7.10;3.95;;;;;;;;;;5075988;28;20027;-83
2023/03/25 09:26:33;;;;;;;6.35;4.50;;;;;;;;;;5073802;28;20031;-83
2023/03/25 09:28:59;;;;;;;6.22;4.05;;;;;;;;;;5073837;28;20024;-83
2023/03/25 09:31:26;;;;;;;6.68;4.22;;;;;;;;;;5073719;28;20067;-84
2023/03/25 09:33:52;;;;;;;7.43;4.40;;;;;;;;;;5073553;28;20569;-83
2023/03/25 09:36:18;;;;;;;6.53;4.15;;;;;;;;;;5073901;28;20040;-83
2023/03/25 09:38:44;;;;;;;5.72;4.35;;;;;;;;;;5073441;28;20077;-83
2023/03/25 09:44:04;;;;;;;7.40;3.78;;;;;;;;;;5080966;28;20435;-83
2023/03/25 09:46:30;;;;;;;6.65;4.60;;;;;;;;;;5048795;28;20025;-82
2023/03/25 09:48:56;;;;;;;6.55;3.90;;;;;;;;;;5049010;28;20021;-82
2023/03/25 09:51:26;;;;;;;5.78;4.00;;;;;;;;;;5048577;28;20032;-82
2023/03/25 09:53:58;;;;;;;5.35;4.05;;;;;;;;;;5048601;28;20060;-81
2023/03/25 09:56:30;;;;;;;4.60;3.73;;;;;;;;;;5048863;28;20045;-82
2023/03/25 09:59:08;;;;;;;5.32;3.65;;;;;;;;;;5048446;28;20471;-82
2023/03/25 10:04:21;;;;;;;6.60;3.80;;;;;;;;;;5089118;27;20440;-82
2023/03/25 10:17:44;;;;;;;4.15;3.42;;;;;;;;;;5068477;27;20138;-81
2023/03/25 10:20:25;;;;;;;5.43;3.50;;;;;;;;;;5068374;28;20032;-82
2023/03/25 10:23:11;;;;;;;5.68;3.28;;;;;;;;;;5068732;28;20048;-82
2023/03/25 10:25:40;;;;;;;4.43;3.42;;;;;;;;;;5077187;28;20466;-81
2023/03/25 10:28:07;;;;;;;4.25;2.72;;;;;;;;;;5084569;28;20096;-81
2023/03/25 10:30:38;;;;;;;4.03;3.03;;;;;;;;;;5083024;28;20008;-82
2023/03/25 10:33:16;;;;;;;5.72;3.30;;;;;;;;;;5084760;28;20025;-82
2023/03/25 10:35:46;;;;;;;4.28;3.20;;;;;;;;;;5078034;28;20063;-81
2023/03/25 10:38:17;;;;;;;5.47;3.10;;;;;;;;;;5071274;28;20030;-82
2023/03/25 10:40:44;;;;;;;5.22;3.08;;;;;;;;;;5068268;28;20056;-83
2023/03/25 10:46:03;;;;;;;4.57;3.00;;;;;;;;;;5049265;28;20415;-82
2023/03/25 10:48:30;;;;;;;4.30;2.83;;;;;;;;;;5048620;28;20040;-82
2023/03/25 10:51:04;;;;;;;4.03;3.05;;;;;;;;;;5049032;28;20095;-82
2023/03/25 10:53:30;;;;;;;7.72;3.28;;;;;;;;;;5048334;28;20025;-82
2023/03/25 10:56:01;;;;;;;4.10;2.60;;;;;;;;;;5048453;28;20416;-82
2023/03/25 10:58:27;;;;;;;4.40;2.85;;;;;;;;;;5048264;28;20501;-82
2023/03/25 11:00:53;;;;;;;5.50;2.88;;;;;;;;;;5048158;28;20055;-82
2023/03/25 11:03:21;;;;;;;4.38;2.92;;;;;;;;;;5048501;28;20099;-83
2023/03/25 11:05:48;;;;;;;3.40;2.53;;;;;;;;;;5047821;28;20087;-83
2023/03/25 11:08:14;;;;;;;7.03;3.00;;;;;;;;;;5048325;28;20029;-83
2023/03/25 11:10:46;;;;;;;4.60;2.70;;;;;;;;;;5048084;28;20033;-83
2023/03/25 11:13:15;;;;;;;4.05;2.75;;;;;;;;;;5048677;28;20431;-84
2023/03/25 11:15:41;;;;;;;5.43;2.90;;;;;;;;;;5049254;28;20109;-83
2023/03/25 11:18:24;;;;;;;3.88;2.80;;;;;;;;;;5048561;28;20028;-83
2023/03/25 11:20:56;;;;;;;4.55;2.78;;;;;;;;;;5047660;28;20025;-81
2023/03/25 11:23:25;;;;;;;3.00;2.60;;;;;;;;;;5047945;28;20029;-82
2023/03/25 11:25:53;;;;;;;4.10;2.80;;;;;;;;;;5048206;28;20025;-82
2023/03/25 11:28:24;;;;;;;3.83;2.72;;;;;;;;;;5047858;28;20397;-83
2023/03/25 11:33:44;;;;;;;3.38;2.65;;;;;;;;;;5048628;28;20492;-82
2023/03/25 11:36:11;;;;;;;4.38;2.80;;;;;;;;;;5048339;28;20427;-82
2023/03/25 11:38:38;;;;;;;4.25;2.70;;;;;;;;;;5048715;28;20108;-82
2023/03/25 11:41:04;;;;;;;3.97;2.67;;;;;;;;;;5048775;28;20029;-82
2023/03/25 11:43:35;;;;;;;4.55;2.50;;;;;;;;;;5048207;28;20057;-83
2023/03/25 11:46:08;;;;;;;2.88;2.42;;;;;;;;;;5048971;28;20029;-82
2023/03/25 11:48:37;;;;;;;2.90;2.20;;;;;;;;;;5048193;28;20600;-82
2023/03/25 11:51:05;;;;;;;3.65;2.63;;;;;;;;;;5048591;28;20137;-82
2023/03/25 11:53:32;;;;;;;3.42;2.40;;;;;;;;;;5048205;28;20032;-82
2023/03/25 11:56:06;;;;;;;4.55;2.45;;;;;;;;;;5048759;28;20068;-83
2023/03/25 11:58:35;;;;;;;3.45;2.30;;;;;;;;;;5048332;28;20025;-82
2023/03/25 12:01:06;;;;;;;3.55;2.40;;;;;;;;;;5048555;28;20021;-82
2023/03/25 12:03:33;;;;;;;3.53;2.50;;;;;;;;;;5048172;28;20033;-82
2023/03/25 12:14:23;;;;;;;2.72;2.25;;;;;;;;;;5068397;28;20554;-82
2023/03/25 12:22:20;;;;;;;4.97;2.65;;;;;;;;;;5088928;27;20142;-82
2023/03/25 12:30:29;;;;;;;5.60;3.00;;;;;;;;;;5068922;28;20383;-81
2023/03/25 12:41:36;;;;;;;3.10;2.35;;;;;;;;;;5048833;28;20148;-83
2023/03/25 12:49:56;;;;;;;3.55;2.45;;;;;;;;;;5088929;27;20428;-82
2023/03/25 12:52:35;;;;;;;3.63;2.60;;;;;;;;;;5088052;28;20075;-83
2023/03/25 12:57:51;;;;;;;7.00;3.00;;;;;;;;;;5048969;28;20431;-83
2023/03/25 13:03:29;;;;;;;6.00;2.90;;;;;;;;;;5089886;27;20390;-82
2023/03/25 13:08:38;;;;;;;7.30;3.00;;;;;;;;;;5088962;27;20847;-81
2023/03/25 13:11:23;;;;;;;6.30;3.00;;;;;;;;;;5089097;28;20024;-83
2023/03/25 13:13:50;;;;;;;4.50;2.75;;;;;;;;;;5088756;28;20027;-83
2023/03/25 13:16:18;;;;;;;4.03;2.60;;;;;;;;;;5088902;28;20028;-81
2023/03/25 13:18:47;;;;;;;5.82;3.00;;;;;;;;;;5088914;28;20021;-82
2023/03/25 13:21:23;;;;;;;4.70;2.80;;;;;;;;;;5088598;28;20024;-82
2023/03/25 13:23:52;;;;;;;5.65;3.17;;;;;;;;;;5088700;28;20021;-82
2023/03/25 13:26:20;;;;;;;4.18;2.70;;;;;;;;;;5088397;28;20210;-82
2023/03/25 13:28:49;;;;;;;4.95;2.75;;;;;;;;;;5088467;28;20534;-83
2023/03/25 13:31:20;;;;;;;4.95;2.75;;;;;;;;;;5088960;28;20127;-83
2023/03/25 13:33:50;;;;;;;4.93;2.90;;;;;;;;;;5088454;28;20496;-83
2023/03/25 13:36:32;;;;;;;3.88;2.58;;;;;;;;;;5088985;28;20576;-83
2023/03/25 13:39:17;;;;;;;3.78;2.55;;;;;;;;;;5088398;28;20017;-82
2023/03/25 13:41:45;;;;;;;5.90;2.80;;;;;;;;;;5087655;28;20050;-82
2023/03/25 13:44:19;;;;;;;7.30;3.05;;;;;;;;;;5088694;28;20111;-83
2023/03/25 13:46:58;;;;;;;4.70;2.70;;;;;;;;;;5088450;28;20108;-83
2023/03/25 13:49:29;;;;;;;3.75;2.47;;;;;;;;;;5088672;28;20036;-83
2023/03/25 13:51:55;;;;;;;3.92;2.60;;;;;;;;;;5088392;28;20095;-82
2023/03/25 13:54:27;;;;;;;4.80;2.72;;;;;;;;;;5088487;28;20027;-83
2023/03/25 14:05:09;;;;;;;4.78;2.63;;;;;;;;;;5049711;28;20377;-82
2023/03/25 14:10:37;;;;;;;4.80;2.60;;;;;;;;;;5049611;28;20381;-82
2023/03/25 14:13:08;;;;;;;5.35;2.70;;;;;;;;;;5049167;28;20037;-82
2023/03/25 14:15:36;;;;;;;3.88;2.88;;;;;;;;;;5048914;28;20044;-83
2023/03/25 14:18:03;;;;;;;4.35;2.78;;;;;;;;;;5048866;28;20421;-82
2023/03/25 14:20:32;;;;;;;3.25;2.60;;;;;;;;;;5048980;28;20075;-82
2023/03/25 14:23:01;;;;;;;3.47;2.60;;;;;;;;;;5048779;28;20071;-83
2023/03/25 14:25:32;;;;;;;5.20;2.70;;;;;;;;;;5049205;28;20025;-83
2023/03/25 14:27:59;;;;;;;5.88;2.72;;;;;;;;;;5048733;28;20117;-84
2023/03/25 14:30:27;;;;;;;3.13;2.47;;;;;;;;;;5048677;28;20156;-83
2023/03/25 14:32:56;;;;;;;4.85;2.80;;;;;;;;;;5048345;28;20038;-83
2023/03/25 14:40:47;;;;;;;4.60;2.60;;;;;;;;;;5048680;28;20522;-83
2023/03/25 14:46:17;;;;;;;3.78;2.45;;;;;;;;;;5069176;28;20856;-82
2023/03/25 14:54:02;;;;;;;4.05;2.63;;;;;;;;;;5089120;27;1259421;-82
2023/03/25 14:56:33;;;;;;;3.00;2.38;;;;;;;;;;5130029;28;20088;-82
2023/03/25 14:59:04;;;;;;;3.65;2.50;;;;;;;;;;5130006;28;20435;-81
2023/03/25 15:01:32;;;;;;;3.60;2.58;;;;;;;;;;5129894;27;20388;-82
2023/03/25 15:04:12;;;;;;;2.92;2.40;;;;;;;;;;5130072;28;20055;-82
2023/03/25 15:06:38;;;;;;;3.58;2.47;;;;;;;;;;5129645;27;20103;-81
2023/03/25 15:09:08;;;;;;;3.10;2.30;;;;;;;;;;5130137;28;20080;-82
2023/03/25 15:11:36;;;;;;;4.35;2.60;;;;;;;;;;5129541;27;20024;-83
2023/03/25 15:14:04;;;;;;;3.67;2.40;;;;;;;;;;5129918;27;20119;-83
2023/03/25 15:16:50;;;;;;;3.47;2.25;;;;;;;;;;5129295;28;20022;-82
2023/03/25 15:19:20;;;;;;;4.05;2.50;;;;;;;;;;5130460;28;20107;-83
2023/03/25 15:24:39;;;;;;;2.83;2.20;;;;;;;;;;5070010;28;20461;-81
2023/03/25 15:27:21;;;;;;;4.95;2.50;;;;;;;;;;5070065;28;20120;-82
2023/03/25 15:32:46;;;;;;;3.13;2.50;;;;;;;;;;5049158;28;20427;-82
2023/03/25 15:38:24;;;;;;;3.10;2.33;;;;;;;;;;5068964;28;20395;-83
2023/03/25 15:46:22;;;;;;;3.45;2.50;;;;;;;;;;5101487;27;20376;-83
2023/03/25 15:49:08;;;;;;;4.63;2.70;;;;;;;;;;5068586;28;20466;-83
2023/03/25 15:51:51;;;;;;;3.80;2.47;;;;;;;;;;5067898;28;20067;-82
2023/03/25 15:54:37;;;;;;;5.78;2.45;;;;;;;;;;5068856;28;20070;-82
2023/03/25 15:57:13;;;;;;;3.88;2.45;;;;;;;;;;5067724;28;20108;-82
2023/03/25 15:59:43;;;;;;;3.75;2.40;;;;;;;;;;5068410;28;20025;-83
2023/03/25 16:02:29;;;;;;;3.53;2.50;;;;;;;;;;5068930;28;20032;-84
2023/03/25 16:04:55;;;;;;;3.65;2.38;;;;;;;;;;5067648;28;20024;-82
2023/03/25 16:07:28;;;;;;;3.90;2.70;;;;;;;;;;5068522;28;20017;-82
2023/03/25 16:09:54;;;;;;;5.53;2.83;;;;;;;;;;5068650;28;20112;-82
2023/03/25 16:12:22;;;;;;;2.88;2.30;;;;;;;;;;5068618;28;20069;-82
2023/03/25 16:14:48;;;;;;;5.10;2.72;;;;;;;;;;5068285;28;20029;-82
2023/03/25 16:17:15;;;;;;;6.10;2.50;;;;;;;;;;5068343;28;20037;-83
2023/03/25 16:19:42;;;;;;;3.63;2.53;;;;;;;;;;5068143;28;20025;-82
2023/03/25 16:22:26;;;;;;;5.35;3.10;;;;;;;;;;5068388;28;20125;-82
2023/03/25 16:24:54;;;;;;;3.95;2.50;;;;;;;;;;5067923;28;20445;-82
2023/03/25 16:27:22;;;;;;;4.95;2.60;;;;;;;;;;5068251;28;20021;-82
2023/03/25 16:29:51;;;;;;;5.32;2.90;;;;;;;;;;5067948;28;20158;-82
2023/03/25 16:32:19;;;;;;;5.60;2.30;;;;;;;;;;5068114;28;20013;-82
2023/03/25 16:34:46;;;;;;;6.68;2.70;;;;;;;;;;5067594;28;20067;-82
2023/03/25 16:37:13;;;;;;;3.28;2.50;;;;;;;;;;5067522;28;20024;-82
2023/03/25 16:39:39;;;;;;;4.90;2.70;;;;;;;;;;5067579;28;20028;-83
2023/03/25 16:42:12;;;;;;;4.47;2.70;;;;;;;;;;5067843;28;20033;-83
2023/03/25 16:44:39;;;;;;;6.35;2.80;;;;;;;;;;5067368;28;20086;-82
2023/03/25 16:47:05;;;;;;;6.03;2.95;;;;;;;;;;5067611;28;20460;-82
2023/03/25 16:49:32;;;;;;;5.97;2.90;;;;;;;;;;5067647;28;20430;-82
2023/03/25 16:52:00;;;;;;;4.78;2.90;;;;;;;;;;5067712;28;20342;-82
2023/03/25 16:54:31;;;;;;;5.53;3.30;;;;;;;;;;5067471;28;20100;-82
2023/03/25 16:56:59;;;;;;;9.30;3.50;;;;;;;;;;5057864;28;20053;-82
2023/03/25 16:59:27;;;;;;;5.38;3.17;;;;;;;;;;5053984;28;20032;-81
2023/03/25 17:01:55;;;;;;;6.95;3.60;;;;;;;;;;5053875;28;20111;-82